Aviation Digital Data Service (ADDS)

Output produced by METARs form (1408 UTC 10 July 2020)
found at http://www.aviationweather.gov/metar/data/
 
KJAN 101354Z 26006KT 10SM SCT014 OVC041 28/24 A3002 RMK AO2 SLP162 T02830244
KJAN 101254Z 25006KT 9SM FEW039 BKN047 27/24 A3001 RMK AO2 SLP158 T02720244
KJAN 101154Z 24003KT 8SM FEW012 SCT042 BKN250 27/24 A3000 RMK AO2 SLP154 T02670244 10267 20261 51013
KJAN 101054Z 24005KT 9SM BKN043 27/24 A2999 RMK AO2 SLP151 T02670244
KJAN 100954Z AUTO 22005KT 8SM SCT040 27/24 A2998 RMK AO2 SLP144 T02670244
KJAN 100854Z AUTO 20004KT 9SM CLR 27/24 A2996 RMK AO2 SLP140 T02670244 53004
KJAN 100754Z AUTO 20003KT 9SM FEW042 27/24 A2996 RMK AO2 SLP138 T02670244
KJAN 100654Z AUTO 13003KT 10SM SCT042 BKN055 27/24 A2996 RMK AO2 SLP138 T02670244
KJAN 100554Z AUTO 00000KT 10SM SCT041 27/24 A2995 RMK AO2 SLP137 T02670239 10322 20256 403390233 52011
KJAN 100454Z AUTO 14003KT 10SM CLR 26/24 A2994 RMK AO2 SLP134 T02610239
KJAN 100354Z 00000KT 10SM CLR 27/24 A2993 RMK AO2 SLP129 T02720239
KJAN 100254Z 00000KT 10SM CLR 27/24 A2992 RMK AO2 SLP126 T02720239 55002
KJAN 100154Z 00000KT 10SM FEW250 27/24 A2991 RMK AO2 SLP123 T02720244
KJAN 100054Z 00000KT 10SM FEW045 SCT250 30/24 A2991 RMK AO2 SLP122 T03000239
KJAN 092354Z 25004KT 10SM FEW045 SCT250 32/23 A2992 RMK AO2 SLP128 T03170233 10339 20317 56003
KJAN 092254Z 26007KT 10SM FEW045 SCT250 32/23 A2993 RMK AO2 SLP128 T03220228
KJAN 092154Z 24008KT 10SM SCT045 33/23 A2993 RMK AO2 SLP129 T03330228
KJAN 092054Z 24008KT 10SM SCT039 BKN055 33/24 A2993 RMK AO2 SLP130 T03330239 55008
KJAN 091954Z 25007KT 10SM SCT034 BKN060 33/24 A2993 RMK AO2 LTG DSNT NE SLP128 T03330239
KJAN 091854Z 25005KT 10SM BKN030 33/24 A2995 RMK AO2 SLP137 T03280244
KJAN 091754Z 28005KT 10SM FEW025 32/24 A2996 RMK AO2 SLP139 T03170244 10322 20261 58003
KJAN 091654Z 23007KT 10SM FEW022 SCT033 31/24 A2997 RMK AO2 SLP142 T03110244
KJAN 091625Z 26006KT 10SM FEW021 SCT027 BKN033 31/24 A2997 RMK AO2 T03060244
KJAN 091554Z 28005KT 10SM BKN022 OVC027 30/24 A2997 RMK AO2 SLP144 T03000244
KJAN 091454Z 27009KT 9SM BKN016 29/24 A2997 RMK AO2 SLP142 T02890239 50004
KJAN 091402Z 25007KT 9SM OVC015 28/24 A2997 RMK AO2 T02780239
KJAN 091354Z 26006KT 8SM OVC013 28/24 A2997 RMK AO2 SLP143 T02780239
KJAN 091254Z 25005KT 7SM OVC012 27/24 A2997 RMK AO2 SLP142 T02670239
KJAN 091154Z 24005KT 5SM BR OVC011 26/24 A2995 RMK AO2 SLP137 70025 T02610239 10261 20233 51009
KJAN 091054Z AUTO 23006KT 8SM OVC009 25/23 A2994 RMK AO2 CIG 008V013 SLP133 T02500233
KJAN 091009Z AUTO 21005KT 8SM OVC007 24/23 A2993 RMK AO2 T02440233
KJAN 090954Z AUTO 21004KT 9SM OVC008 24/23 A2992 RMK AO2 CIG 005V011 SLP128 T02440228
KJAN 090912Z AUTO 21004KT 9SM BKN006 OVC010 24/23 A2992 RMK AO2 T02390228
KJAN 090854Z AUTO 20004KT 9SM OVC004 24/23 A2991 RMK AO2 SLP126 T02390228 55008
KJAN 090836Z AUTO 20004KT 10SM OVC004 24/23 A2991 RMK AO2 T02390228
KJAN 090754Z AUTO 19004KT 10SM BKN005 23/22 A2991 RMK AO2 CIG 004V008 SLP124 T02330222
KJAN 090730Z AUTO 18004KT 10SM BKN005 23/22 A2991 RMK AO2 CIG 004V008 T02330222
KJAN 090654Z AUTO 19006KT 10SM OVC004 24/22 A2992 RMK AO2 SLP127 T02390222
KJAN 090616Z AUTO 19006KT 10SM OVC004 23/22 A2993 RMK AO2 T02330222
KJAN 090608Z AUTO 19006KT 10SM BKN005 23/22 A2993 RMK AO2 T02330222
KJAN 090554Z AUTO 19006KT 10SM FEW005 24/22 A2994 RMK AO2 SLP133 T02390222 10261 20239 402830233 58001
KJAN 090454Z AUTO 17005KT 10SM BKN085 24/23 A2995 RMK AO2 SLP136 T02390228
KJAN 090354Z 20004KT 10SM SCT003 OVC080 24/23 A2994 RMK AO2 SLP135 T02440228
KJAN 090309Z 15003KT 10SM SCT004 SCT085 24/23 A2994 RMK AO2 T02390228
KJAN 090254Z 18005KT 10SM CLR 24/23 A2994 RMK AO2 SLP133 T02440228 53008
KJAN 090154Z 18005KT 10SM FEW075 24/23 A2993 RMK AO2 SLP129 T02440228
KJAN 090126Z 19005KT 10SM FEW007 24/23 A2993 RMK AO2 T02440228
KJAN 090054Z 19006KT 10SM SCT250 25/23 A2992 RMK AO2 SLP127 T02500228
KJAN 082354Z VRB03KT 10SM R16L/6000VP6000FT BKN250 26/23 A2991 RMK AO2 SLP125 60010 T02560228 10256 20239 58013
KJAN 082254Z 18006KT 10SM FEW047 SCT090 BKN110 26/23 A2994 RMK AO2 SLP132 T02560233
KJAN 082154Z 20005KT 10SM FEW047 SCT090 BKN110 26/23 A2995 RMK AO2 RAE10 SLP138 P0000 T02560233
KJAN 082054Z 25005KT 10SM -RA SCT047 SCT060 BKN075 BKN250 25/22 A2995 RMK AO2 RAE08B45 SLP138 P0000 60010 T02500222 58007
KJAN 082004Z 25005KT 10SM -RA FEW009 SCT016 BKN032 25/22 A2996 RMK AO2 LTG DSNT W P0000 T02500222
KJAN 081954Z 25005KT 5SM -RA BR SCT015 BKN030 OVC090 25/23 A2997 RMK AO2 LTG DSNT W RAE17B47 SLP142 P0001 T02500228
KJAN 081854Z 21003KT 7SM -RA FEW032 BKN095 BKN110 24/23 A2998 RMK AO2 LTG DSNT W TSE47 SLP147 TS MOV SE P0009 T02390228
KJAN 081754Z 20003KT 10SM -TSRA FEW032CB SCT080 BKN100 24/22 A2999 RMK AO2 LTG DSNT ALQDS SLP153 OCNL LTGICCCCG E-S TS E-S MOV SE P0013 60015 T02390222 10283 20233 58004
KJAN 081714Z 00000KT 3SM TSRA BR SCT010 BKN040CB OVC075 24/22 A3002 RMK AO2 LTG DSNT SE-W OCNL LTGICCCCG S-W-NW TS S-W-NW MOV SE P0009 T02390222
KJAN 081706Z VRB03KT 2SM R16L/5000VP6000FT -TSRA BR SCT010 BKN040CB OVC075 23/22 A3001 RMK AO2 LTG DSNT ALQDS OCNL LTGICCCCG S-W-NW TS S-W-NW MOV SE P0008 T02330222
KJAN 081701Z 02005KT 1SM R16L/4500VP6000FT +TSRA BR BKN010 BKN036CB OVC060 23/22 A3001 RMK AO2 LTG DSNT E AND S AND W OCNL LTGICCCCG S-W-NW TS S-W-NW MOV SE P0006 T02330217
KJAN 081654Z VRB05KT 2 1/2SM R16L/4500VP6000FT TSRA BR SCT010 BKN013 OVC047CB 24/22 A3002 RMK AO2 LTG DSNT E AND S AND W RAB00 TSB07 SLP162 OCNL LTGICCCCG S-W-NW TS S-W-NW MOV SE P0002 T02390222
KJAN 081647Z 32005KT 6SM -TSRA BR FEW010 BKN013 OVC055CB 24/22 A3003 RMK AO2 LTG DSNT W AND NW RAB00 TSB07 OCNL LTGICCCCG SE-SW TS SE-SW MOV SE P0002 T02390217
KJAN 081613Z COR 35006KT 6SM -TSRA FEW013 BKN032CB OVC055 24/22 A3001 RMK AO2 LTG DSNT W AND NW RAB00 TSB07 OCNL LTGICCCCG SE AND NW TS SE AND NW MOV SE P0001 T02440217
KJAN 081606Z 36010KT 7SM VCTS -RA FEW013 BKN029 OVC046 25/21 A3001 RMK AO2 LTG DSNT W AND NW RAB00 P0000 T02500211
KJAN 081554Z 31007KT 260V360 10SM SCT014 BKN020 OVC027 28/24 A3001 RMK AO2 LTG DSNT W-N SLP158 T02830239
KJAN 081454Z 22006KT 8SM OVC010 27/24 A3001 RMK AO2 LTG DSNT NW SLP156 T02670239 50005
KJAN 081450Z 22007KT 8SM OVC010 27/24 A3001 RMK AO2 LTG DSNT NW
KJAN 081354Z 19006KT 8SM OVC008 26/24 A3000 RMK AO2 SLP153 T02610239
KJAN 081254Z 19005KT 7SM OVC006 25/23 A2999 RMK AO2 SLP151 T02500233
KJAN 081154Z 18003KT 10SM BKN007 24/23 A2999 RMK AO2 SLP152 60000 70028 T02440228 10244 20239 51005
KJAN 081054Z 18003KT 10SM BKN009 24/22 A2999 RMK AO2 SLP151 T02440222
KJAN 081047Z 18003KT 10SM BKN009 24/22 A2999 RMK AO2 CIG 008V012 T02440222
KJAN 081042Z AUTO 00000KT 10SM SCT011 24/22 A2999 RMK AO2 T02390222
KJAN 081032Z AUTO 20003KT 10SM BKN011 24/22 A2999 RMK AO2 T02440222
KJAN 080954Z AUTO 18004KT 10SM FEW120 24/22 A2998 RMK AO2 SLP148 T02440222
KJAN 080854Z AUTO 22003KT 10SM SCT110 24/23 A2998 RMK AO2 SLP146 60000 T02440228 55006
KJAN 080754Z AUTO 19003KT 10SM CLR 24/23 A2997 RMK AO2 SLP144 T02440233
KJAN 080654Z AUTO 18005KT 10SM BKN120 24/23 A2999 RMK AO2 RAE34 SLP149 P0000 T02440233
KJAN 080554Z AUTO 16004KT 10SM -RA FEW070 SCT120 24/23 A2999 RMK AO2 RAB45 SLP152 P0000 60000 T02440233 10250 20239 403060233 50003
KJAN 080454Z AUTO 00000KT 10SM CLR 24/23 A3000 RMK AO2 SLP152 T02440228
KJAN 080354Z 00000KT 10SM FEW250 24/22 A2999 RMK AO2 SLP150 T02390222
KJAN 080254Z 08003KT 10SM CLR 24/23 A2998 RMK AO2 SLP149 60000 T02390228 55000
KJAN 080154Z 00000KT 10SM SCT250 25/23 A2997 RMK AO2 SLP144 T02500228
KJAN 080054Z 00000KT 10SM SCT120 BKN250 24/23 A2996 RMK AO2 RAE2359 SLP139 P0000 T02440228
KJAN 072354Z 05006KT 6SM R16L/2800VP6000FT -RA BR FEW012 SCT039 BKN047 24/22 A2999 RMK AO2 RAB39 SLP150 P0008 60028 T02440222 10300 20244 55002
KJAN 072344Z 02009KT 1 3/4SM R16L/2600VP6000FT +RA BR FEW023 BKN039 OVC047 24/22 A2999 RMK AO2 RAB39 P0002 T02440222
KJAN 072341Z 03011KT 3SM R16L/4000VP6000FT RA BR FEW018 SCT023 OVC039 25/22 A2999 RMK AO2 RAB39 P0000 T02500222
KJAN 072319Z 03013G22KT 10SM BKN018 BKN025 BKN075 26/22 A2999 RMK AO2 T02610217
KJAN 072254Z 14003KT 10SM BKN085 29/24 A2998 RMK AO2 LTG DSNT NE SLP148 T02940244
KJAN 072154Z 00000KT 10SM BKN120 BKN250 29/23 A2998 RMK AO2 LTG DSNT N RAB09E22 SLP147 P0000 T02890233
KJAN 072107Z 00000KT 10SM FEW039 SCT090 BKN110 28/23 A2999 RMK AO2 LTG DSNT E AND SE T02780228
KJAN 072054Z 00000KT 10SM VCTS FEW021 SCT100 SCT120 28/22 A2999 RMK AO2 LTG DSNT E AND SE RAB24E42 SLP151 P0001 60020 T02780222 56003
KJAN 072052Z 00000KT 10SM VCTS FEW025 SCT095 SCT120 28/22 A2999 RMK AO2 LTG DSNT E AND SE RAB24E42 P0001
KJAN 072020Z 36007KT 10SM FEW050 SCT060 BKN075 28/23 A3000 RMK AO2 LTG DSNT E T02780233
KJAN 071954Z 34003KT 10SM VCTS FEW032 FEW043 BKN060 28/23 A3000 RMK AO2 LTG DSNT N-E RAB15E49 SLP153 P0019 T02830233
KJAN 071946Z 00000KT 4SM R16L/4500VP6000FT VCTS -RA BR SCT031 SCT043 BKN055 27/23 A3000 RMK AO2 LTG DSNT N AND NE RAB15 P0019 T02720233
KJAN 071940Z 28003KT 1SM R16L/2800VP6000FT VCTS +RA BR FEW019 BKN033 OVC065 26/23 A2999 RMK AO2 LTG DSNT NE RAB15 P0017 T02610233
KJAN 071937Z 33003G16KT 3/4SM R16L/2800VP6000FT +RA BR FEW019 BKN037 OVC065 26/23 A2999 RMK AO2 LTG DSNT NE RAB15 P0012 T02560228
KJAN 071926Z 31009KT 1 1/2SM R16L/4000VP6000FT +RA BR FEW019 SCT033 BKN055 27/23 A3000 RMK AO2 LTG DSNT N AND NE RAB15 P0000 T02720228
KJAN 071854Z 24010KT 10SM SCT016 SCT026 BKN030 29/24 A3000 RMK AO2 RAB01E33 SLP154 P0000 T02940244
KJAN 071754Z 28004KT 10SM FEW025 FEW037 SCT095 BKN250 29/23 A3002 RMK AO2 LTG DSNT S SLP160 T02940233 10306 20244 58005
KJAN 071654Z 28007KT 10SM SCT019 BKN250 30/23 A3002 RMK AO2 SLP161 T03000233
KJAN 071554Z 27007KT 10SM SCT016 SCT021 28/24 A3003 RMK AO2 SLP164 T02830239
KJAN 071512Z 26005KT 10SM BKN015 BKN120 28/23 A3004 RMK AO2 T02780233
KJAN 071501Z 27006KT 10SM SCT017 BKN120 28/23 A3003 RMK AO2 T02780233
KJAN 071454Z 26006KT 10SM BKN017 BKN120 27/23 A3003 RMK AO2 SLP165 T02720233 51010
KJAN 071452Z 25008KT 10SM BKN017 OVC120 27/23 A3003 RMK AO2
KJAN 071417Z 27005KT 10SM SCT008 SCT012 27/23 A3003 RMK AO2 T02670233
KJAN 101120Z 1012/1112 24006KT P6SM BKN045 
     FM101800 30008KT P6SM VCTS BKN040CB 
     FM102300 31003KT P6SM SCT050